sensor_id;sensor_type;location;lat;lon;timestamp;P1;durP1;ratioP1;P2;durP2;ratioP2
39094;SDS011;24840;47.508;19.376;2023-02-15T00:00:13;51.77;;;25.07;;
39094;SDS011;24840;47.508;19.376;2023-02-15T00:02:39;41.63;;;21.20;;
39094;SDS011;24840;47.508;19.376;2023-02-15T00:05:05;40.77;;;19.50;;
39094;SDS011;24840;47.508;19.376;2023-02-15T00:07:31;33.70;;;16.63;;
39094;SDS011;24840;47.508;19.376;2023-02-15T00:09:57;23.07;;;13.57;;
39094;SDS011;24840;47.508;19.376;2023-02-15T00:12:23;26.40;;;15.07;;
39094;SDS011;24840;47.508;19.376;2023-02-15T00:14:49;20.50;;;14.87;;
39094;SDS011;24840;47.508;19.376;2023-02-15T00:17:14;24.90;;;13.80;;
39094;SDS011;24840;47.508;19.376;2023-02-15T00:19:40;19.07;;;13.43;;
39094;SDS011;24840;47.508;19.376;2023-02-15T00:22:06;20.00;;;13.63;;
39094;SDS011;24840;47.508;19.376;2023-02-15T00:24:32;21.87;;;15.43;;
39094;SDS011;24840;47.508;19.376;2023-02-15T00:26:58;23.77;;;14.90;;
39094;SDS011;24840;47.508;19.376;2023-02-15T00:29:24;41.27;;;20.40;;
39094;SDS011;24840;47.508;19.376;2023-02-15T00:31:50;40.60;;;20.00;;
39094;SDS011;24840;47.508;19.376;2023-02-15T00:34:17;43.77;;;23.30;;
39094;SDS011;24840;47.508;19.376;2023-02-15T00:36:45;49.40;;;26.63;;
39094;SDS011;24840;47.508;19.376;2023-02-15T00:39:11;61.83;;;30.67;;
39094;SDS011;24840;47.508;19.376;2023-02-15T00:41:38;46.60;;;27.03;;
39094;SDS011;24840;47.508;19.376;2023-02-15T00:44:04;64.93;;;31.70;;
39094;SDS011;24840;47.508;19.376;2023-02-15T00:46:30;58.63;;;28.23;;
39094;SDS011;24840;47.508;19.376;2023-02-15T00:48:56;31.77;;;19.13;;
39094;SDS011;24840;47.508;19.376;2023-02-15T00:51:22;29.10;;;17.00;;
39094;SDS011;24840;47.508;19.376;2023-02-15T00:53:48;21.93;;;14.50;;
39094;SDS011;24840;47.508;19.376;2023-02-15T00:56:15;31.43;;;15.90;;
39094;SDS011;24840;47.508;19.376;2023-02-15T00:58:41;48.60;;;21.37;;
39094;SDS011;24840;47.508;19.376;2023-02-15T01:01:08;60.20;;;29.83;;
39094;SDS011;24840;47.508;19.376;2023-02-15T01:03:36;67.40;;;30.97;;
39094;SDS011;24840;47.508;19.376;2023-02-15T01:06:02;48.37;;;25.10;;
39094;SDS011;24840;47.508;19.376;2023-02-15T01:08:28;51.47;;;26.83;;
39094;SDS011;24840;47.508;19.376;2023-02-15T01:10:54;50.37;;;26.83;;
39094;SDS011;24840;47.508;19.376;2023-02-15T01:13:20;48.43;;;24.37;;
39094;SDS011;24840;47.508;19.376;2023-02-15T01:15:51;35.13;;;19.77;;
39094;SDS011;24840;47.508;19.376;2023-02-15T01:18:20;34.63;;;20.77;;
39094;SDS011;24840;47.508;19.376;2023-02-15T01:20:46;30.07;;;18.00;;
39094;SDS011;24840;47.508;19.376;2023-02-15T01:23:12;30.63;;;18.63;;
39094;SDS011;24840;47.508;19.376;2023-02-15T01:25:38;25.23;;;16.03;;
39094;SDS011;24840;47.508;19.376;2023-02-15T01:28:04;21.40;;;13.03;;
39094;SDS011;24840;47.508;19.376;2023-02-15T01:30:30;26.80;;;16.13;;
39094;SDS011;24840;47.508;19.376;2023-02-15T01:32:57;26.93;;;16.73;;
39094;SDS011;24840;47.508;19.376;2023-02-15T01:35:23;32.03;;;18.60;;
39094;SDS011;24840;47.508;19.376;2023-02-15T01:37:49;40.17;;;22.83;;
39094;SDS011;24840;47.508;19.376;2023-02-15T01:40:16;43.33;;;25.67;;
39094;SDS011;24840;47.508;19.376;2023-02-15T01:42:42;39.83;;;21.83;;
39094;SDS011;24840;47.508;19.376;2023-02-15T01:50:13;24.30;;;15.10;;
39094;SDS011;24840;47.508;19.376;2023-02-15T01:58:35;18.13;;;12.70;;
39094;SDS011;24840;47.508;19.376;2023-02-15T02:01:01;25.50;;;14.27;;
39094;SDS011;24840;47.508;19.376;2023-02-15T02:03:55;21.40;;;14.37;;
39094;SDS011;24840;47.508;19.376;2023-02-15T02:06:17;24.80;;;14.60;;
39094;SDS011;24840;47.508;19.376;2023-02-15T02:08:44;30.23;;;17.10;;
39094;SDS011;24840;47.508;19.376;2023-02-15T02:11:11;24.50;;;15.37;;
39094;SDS011;24840;47.508;19.376;2023-02-15T02:13:39;24.07;;;13.67;;
39094;SDS011;24840;47.508;19.376;2023-02-15T02:22:07;17.50;;;11.03;;
39094;SDS011;24840;47.508;19.376;2023-02-15T02:30:37;19.60;;;12.50;;
39094;SDS011;24840;47.508;19.376;2023-02-15T02:36:12;19.03;;;12.20;;
39094;SDS011;24840;47.508;19.376;2023-02-15T02:41:55;15.43;;;9.83;;
39094;SDS011;24840;47.508;19.376;2023-02-15T02:49:45;22.83;;;13.53;;
39094;SDS011;24840;47.508;19.376;2023-02-15T02:55:01;19.87;;;11.33;;
39094;SDS011;24840;47.508;19.376;2023-02-15T02:57:30;18.33;;;10.30;;
39094;SDS011;24840;47.508;19.376;2023-02-15T02:59:57;17.70;;;11.43;;
39094;SDS011;24840;47.508;19.376;2023-02-15T03:02:29;17.43;;;12.37;;
39094;SDS011;24840;47.508;19.376;2023-02-15T03:07:29;14.90;;;10.03;;
39094;SDS011;24840;47.508;19.376;2023-02-15T03:10:00;17.57;;;10.90;;
39094;SDS011;24840;47.508;19.376;2023-02-15T03:17:36;30.50;;;17.00;;
39094;SDS011;24840;47.508;19.376;2023-02-15T03:20:07;34.00;;;19.93;;
39094;SDS011;24840;47.508;19.376;2023-02-15T03:22:49;24.20;;;16.00;;
39094;SDS011;24840;47.508;19.376;2023-02-15T03:25:19;19.77;;;13.80;;
39094;SDS011;24840;47.508;19.376;2023-02-15T03:27:49;19.90;;;11.70;;
39094;SDS011;24840;47.508;19.376;2023-02-15T03:30:36;19.57;;;13.30;;
39094;SDS011;24840;47.508;19.376;2023-02-15T03:33:04;20.50;;;12.07;;
39094;SDS011;24840;47.508;19.376;2023-02-15T03:35:35;21.57;;;13.27;;
39094;SDS011;24840;47.508;19.376;2023-02-15T03:38:13;21.23;;;12.33;;
39094;SDS011;24840;47.508;19.376;2023-02-15T03:43:31;19.37;;;11.80;;
39094;SDS011;24840;47.508;19.376;2023-02-15T03:49:09;20.10;;;12.53;;
39094;SDS011;24840;47.508;19.376;2023-02-15T03:51:39;22.20;;;13.87;;
39094;SDS011;24840;47.508;19.376;2023-02-15T03:54:12;19.73;;;12.00;;
39094;SDS011;24840;47.508;19.376;2023-02-15T03:57:02;20.43;;;11.80;;
39094;SDS011;24840;47.508;19.376;2023-02-15T03:59:48;20.40;;;11.57;;
39094;SDS011;24840;47.508;19.376;2023-02-15T04:02:40;21.90;;;12.37;;
39094;SDS011;24840;47.508;19.376;2023-02-15T04:05:29;20.17;;;11.63;;
39094;SDS011;24840;47.508;19.376;2023-02-15T04:07:55;18.13;;;11.50;;
39094;SDS011;24840;47.508;19.376;2023-02-15T04:10:21;19.30;;;12.43;;
39094;SDS011;24840;47.508;19.376;2023-02-15T04:13:05;19.10;;;11.67;;
39094;SDS011;24840;47.508;19.376;2023-02-15T04:15:31;19.77;;;11.83;;
39094;SDS011;24840;47.508;19.376;2023-02-15T04:18:15;18.37;;;12.43;;
39094;SDS011;24840;47.508;19.376;2023-02-15T04:20:43;19.83;;;12.27;;
39094;SDS011;24840;47.508;19.376;2023-02-15T04:23:28;19.17;;;11.97;;
39094;SDS011;24840;47.508;19.376;2023-02-15T04:26:12;21.83;;;13.23;;
39094;SDS011;24840;47.508;19.376;2023-02-15T04:28:38;18.57;;;12.53;;
39094;SDS011;24840;47.508;19.376;2023-02-15T04:31:04;20.00;;;12.13;;
39094;SDS011;24840;47.508;19.376;2023-02-15T04:33:29;21.70;;;13.97;;
39094;SDS011;24840;47.508;19.376;2023-02-15T04:35:55;29.03;;;17.13;;
39094;SDS011;24840;47.508;19.376;2023-02-15T04:38:21;29.10;;;16.43;;
39094;SDS011;24840;47.508;19.376;2023-02-15T04:40:51;34.63;;;18.17;;
39094;SDS011;24840;47.508;19.376;2023-02-15T04:43:18;30.33;;;16.80;;
39094;SDS011;24840;47.508;19.376;2023-02-15T04:45:48;24.13;;;14.33;;
39094;SDS011;24840;47.508;19.376;2023-02-15T04:48:15;22.97;;;12.80;;
39094;SDS011;24840;47.508;19.376;2023-02-15T04:50:41;18.63;;;12.53;;
39094;SDS011;24840;47.508;19.376;2023-02-15T04:53:07;22.37;;;12.73;;
39094;SDS011;24840;47.508;19.376;2023-02-15T04:55:33;20.03;;;12.37;;
39094;SDS011;24840;47.508;19.376;2023-02-15T04:57:59;17.93;;;12.83;;
39094;SDS011;24840;47.508;19.376;2023-02-15T05:00:25;18.17;;;11.93;;
39094;SDS011;24840;47.508;19.376;2023-02-15T05:02:52;18.63;;;11.80;;
39094;SDS011;24840;47.508;19.376;2023-02-15T05:05:18;20.60;;;12.53;;
39094;SDS011;24840;47.508;19.376;2023-02-15T05:07:44;21.10;;;13.97;;
39094;SDS011;24840;47.508;19.376;2023-02-15T05:10:10;21.00;;;12.43;;
39094;SDS011;24840;47.508;19.376;2023-02-15T05:12:36;15.43;;;10.20;;
39094;SDS011;24840;47.508;19.376;2023-02-15T05:15:01;19.73;;;12.70;;
39094;SDS011;24840;47.508;19.376;2023-02-15T05:17:27;19.90;;;12.20;;
39094;SDS011;24840;47.508;19.376;2023-02-15T05:19:53;17.03;;;11.33;;
39094;SDS011;24840;47.508;19.376;2023-02-15T05:22:19;18.73;;;11.97;;
39094;SDS011;24840;47.508;19.376;2023-02-15T05:24:45;17.53;;;10.87;;
39094;SDS011;24840;47.508;19.376;2023-02-15T05:27:29;19.00;;;11.83;;
39094;SDS011;24840;47.508;19.376;2023-02-15T05:30:13;21.27;;;12.43;;
39094;SDS011;24840;47.508;19.376;2023-02-15T05:32:39;18.33;;;11.83;;
39094;SDS011;24840;47.508;19.376;2023-02-15T05:35:05;22.90;;;14.93;;
39094;SDS011;24840;47.508;19.376;2023-02-15T05:37:32;22.73;;;12.93;;
39094;SDS011;24840;47.508;19.376;2023-02-15T05:39:58;24.97;;;14.73;;
39094;SDS011;24840;47.508;19.376;2023-02-15T05:42:24;23.27;;;13.83;;
39094;SDS011;24840;47.508;19.376;2023-02-15T05:44:49;23.37;;;16.17;;
39094;SDS011;24840;47.508;19.376;2023-02-15T05:47:15;25.07;;;14.20;;
39094;SDS011;24840;47.508;19.376;2023-02-15T05:49:41;22.53;;;14.27;;
39094;SDS011;24840;47.508;19.376;2023-02-15T05:52:06;20.00;;;13.83;;
39094;SDS011;24840;47.508;19.376;2023-02-15T05:54:33;21.43;;;14.03;;
39094;SDS011;24840;47.508;19.376;2023-02-15T05:56:58;25.80;;;14.80;;
39094;SDS011;24840;47.508;19.376;2023-02-15T05:59:24;26.43;;;14.47;;
39094;SDS011;24840;47.508;19.376;2023-02-15T06:01:50;21.00;;;13.63;;
39094;SDS011;24840;47.508;19.376;2023-02-15T06:04:16;25.23;;;14.97;;
39094;SDS011;24840;47.508;19.376;2023-02-15T06:06:41;21.93;;;12.70;;
39094;SDS011;24840;47.508;19.376;2023-02-15T06:09:07;23.73;;;13.27;;
39094;SDS011;24840;47.508;19.376;2023-02-15T06:11:33;21.63;;;13.40;;
39094;SDS011;24840;47.508;19.376;2023-02-15T06:13:59;31.90;;;15.17;;
39094;SDS011;24840;47.508;19.376;2023-02-15T06:16:24;21.53;;;14.20;;
39094;SDS011;24840;47.508;19.376;2023-02-15T06:18:50;18.93;;;13.70;;
39094;SDS011;24840;47.508;19.376;2023-02-15T06:21:16;20.90;;;13.30;;
39094;SDS011;24840;47.508;19.376;2023-02-15T06:23:41;21.53;;;12.90;;
39094;SDS011;24840;47.508;19.376;2023-02-15T06:26:08;30.37;;;14.30;;
39094;SDS011;24840;47.508;19.376;2023-02-15T06:28:34;21.57;;;13.63;;
39094;SDS011;24840;47.508;19.376;2023-02-15T06:30:59;20.80;;;13.33;;
39094;SDS011;24840;47.508;19.376;2023-02-15T06:33:25;25.30;;;14.33;;
39094;SDS011;24840;47.508;19.376;2023-02-15T06:35:51;22.00;;;12.97;;
39094;SDS011;24840;47.508;19.376;2023-02-15T06:38:17;24.20;;;13.83;;
39094;SDS011;24840;47.508;19.376;2023-02-15T06:40:43;23.07;;;13.17;;
39094;SDS011;24840;47.508;19.376;2023-02-15T06:43:08;26.10;;;14.80;;
39094;SDS011;24840;47.508;19.376;2023-02-15T06:45:34;26.37;;;14.63;;
39094;SDS011;24840;47.508;19.376;2023-02-15T06:48:00;23.60;;;14.30;;
39094;SDS011;24840;47.508;19.376;2023-02-15T06:50:26;30.33;;;14.63;;
39094;SDS011;24840;47.508;19.376;2023-02-15T06:52:55;24.47;;;14.10;;
39094;SDS011;24840;47.508;19.376;2023-02-15T06:55:22;26.77;;;13.80;;
39094;SDS011;24840;47.508;19.376;2023-02-15T06:57:48;20.40;;;13.23;;
39094;SDS011;24840;47.508;19.376;2023-02-15T07:00:13;28.63;;;15.10;;
39094;SDS011;24840;47.508;19.376;2023-02-15T07:02:39;27.53;;;14.43;;
39094;SDS011;24840;47.508;19.376;2023-02-15T07:05:05;27.50;;;14.67;;
39094;SDS011;24840;47.508;19.376;2023-02-15T07:07:31;24.63;;;14.40;;
39094;SDS011;24840;47.508;19.376;2023-02-15T07:09:57;27.10;;;14.83;;
39094;SDS011;24840;47.508;19.376;2023-02-15T07:12:22;32.97;;;17.53;;
39094;SDS011;24840;47.508;19.376;2023-02-15T07:15:07;25.27;;;15.27;;
39094;SDS011;24840;47.508;19.376;2023-02-15T07:17:37;38.07;;;20.73;;
39094;SDS011;24840;47.508;19.376;2023-02-15T07:20:04;27.80;;;16.90;;
39094;SDS011;24840;47.508;19.376;2023-02-15T07:22:33;29.13;;;18.63;;
39094;SDS011;24840;47.508;19.376;2023-02-15T07:25:01;39.73;;;20.90;;
39094;SDS011;24840;47.508;19.376;2023-02-15T07:27:28;33.07;;;18.60;;
39094;SDS011;24840;47.508;19.376;2023-02-15T07:29:55;31.83;;;17.37;;
39094;SDS011;24840;47.508;19.376;2023-02-15T07:32:20;35.57;;;18.87;;
39094;SDS011;24840;47.508;19.376;2023-02-15T07:34:46;33.57;;;20.23;;
39094;SDS011;24840;47.508;19.376;2023-02-15T07:37:12;36.47;;;21.40;;
39094;SDS011;24840;47.508;19.376;2023-02-15T07:39:37;36.73;;;21.77;;
39094;SDS011;24840;47.508;19.376;2023-02-15T07:42:03;42.40;;;24.37;;
39094;SDS011;24840;47.508;19.376;2023-02-15T07:44:29;44.43;;;26.33;;
39094;SDS011;24840;47.508;19.376;2023-02-15T07:46:55;52.03;;;33.70;;
39094;SDS011;24840;47.508;19.376;2023-02-15T07:49:21;48.73;;;32.57;;
39094;SDS011;24840;47.508;19.376;2023-02-15T07:51:47;51.43;;;30.03;;
39094;SDS011;24840;47.508;19.376;2023-02-15T07:54:12;53.30;;;32.17;;
39094;SDS011;24840;47.508;19.376;2023-02-15T07:56:38;47.37;;;30.33;;
39094;SDS011;24840;47.508;19.376;2023-02-15T07:59:04;71.10;;;41.87;;
39094;SDS011;24840;47.508;19.376;2023-02-15T08:01:34;69.77;;;40.20;;
39094;SDS011;24840;47.508;19.376;2023-02-15T08:04:02;61.58;;;39.88;;
39094;SDS011;24840;47.508;19.376;2023-02-15T08:06:30;60.40;;;35.93;;
39094;SDS011;24840;47.508;19.376;2023-02-15T08:08:58;72.50;;;39.63;;
39094;SDS011;24840;47.508;19.376;2023-02-15T08:11:25;61.23;;;39.03;;
39094;SDS011;24840;47.508;19.376;2023-02-15T08:21:44;44.80;;;28.07;;
39094;SDS011;24840;47.508;19.376;2023-02-15T08:24:32;49.00;;;31.60;;
39094;SDS011;24840;47.508;19.376;2023-02-15T08:26:59;45.60;;;30.23;;
39094;SDS011;24840;47.508;19.376;2023-02-15T08:29:26;40.00;;;25.00;;
39094;SDS011;24840;47.508;19.376;2023-02-15T08:31:54;46.90;;;26.83;;
39094;SDS011;24840;47.508;19.376;2023-02-15T08:34:27;38.73;;;25.70;;
39094;SDS011;24840;47.508;19.376;2023-02-15T08:36:54;36.63;;;24.07;;
39094;SDS011;24840;47.508;19.376;2023-02-15T08:39:21;38.73;;;24.60;;
39094;SDS011;24840;47.508;19.376;2023-02-15T08:41:47;41.97;;;28.23;;
39094;SDS011;24840;47.508;19.376;2023-02-15T08:44:14;36.93;;;25.50;;
39094;SDS011;24840;47.508;19.376;2023-02-15T08:46:42;34.73;;;23.47;;
39094;SDS011;24840;47.508;19.376;2023-02-15T08:49:09;36.10;;;24.73;;
39094;SDS011;24840;47.508;19.376;2023-02-15T08:51:40;30.85;;;21.52;;
39094;SDS011;24840;47.508;19.376;2023-02-15T08:54:12;33.37;;;22.83;;
39094;SDS011;24840;47.508;19.376;2023-02-15T08:56:39;31.27;;;23.03;;
39094;SDS011;24840;47.508;19.376;2023-02-15T08:59:07;31.57;;;22.53;;
39094;SDS011;24840;47.508;19.376;2023-02-15T09:01:37;33.30;;;22.87;;
39094;SDS011;24840;47.508;19.376;2023-02-15T09:04:04;34.27;;;22.57;;
39094;SDS011;24840;47.508;19.376;2023-02-15T09:06:33;30.27;;;21.27;;
39094;SDS011;24840;47.508;19.376;2023-02-15T09:09:00;27.70;;;20.37;;
39094;SDS011;24840;47.508;19.376;2023-02-15T09:11:27;36.37;;;23.77;;
39094;SDS011;24840;47.508;19.376;2023-02-15T09:13:55;34.13;;;21.87;;
39094;SDS011;24840;47.508;19.376;2023-02-15T09:16:23;32.80;;;22.83;;
39094;SDS011;24840;47.508;19.376;2023-02-15T09:18:50;29.20;;;21.80;;
39094;SDS011;24840;47.508;19.376;2023-02-15T09:21:17;30.53;;;22.87;;
39094;SDS011;24840;47.508;19.376;2023-02-15T09:23:46;32.67;;;22.43;;
39094;SDS011;24840;47.508;19.376;2023-02-15T09:26:14;28.47;;;21.23;;
39094;SDS011;24840;47.508;19.376;2023-02-15T09:28:42;29.30;;;22.00;;
39094;SDS011;24840;47.508;19.376;2023-02-15T09:31:12;30.70;;;23.33;;
39094;SDS011;24840;47.508;19.376;2023-02-15T09:33:38;28.77;;;20.07;;
39094;SDS011;24840;47.508;19.376;2023-02-15T09:36:12;29.13;;;21.03;;
39094;SDS011;24840;47.508;19.376;2023-02-15T09:38:45;29.97;;;19.63;;
39094;SDS011;24840;47.508;19.376;2023-02-15T09:44:06;28.30;;;19.83;;
39094;SDS011;24840;47.508;19.376;2023-02-15T09:49:47;27.10;;;20.02;;
39094;SDS011;24840;47.508;19.376;2023-02-15T09:55:42;28.63;;;19.47;;
39094;SDS011;24840;47.508;19.376;2023-02-15T10:06:40;25.70;;;18.83;;
39094;SDS011;24840;47.508;19.376;2023-02-15T10:21:02;25.73;;;19.92;;
39094;SDS011;24840;47.508;19.376;2023-02-15T10:34:18;27.13;;;20.98;;
39094;SDS011;24840;47.508;19.376;2023-02-15T10:45:24;22.98;;;17.42;;
39094;SDS011;24840;47.508;19.376;2023-02-15T10:48:30;23.80;;;17.48;;
39094;SDS011;24840;47.508;19.376;2023-02-15T10:51:04;25.55;;;19.45;;
39094;SDS011;24840;47.508;19.376;2023-02-15T11:05:16;23.75;;;18.55;;
39094;SDS011;24840;47.508;19.376;2023-02-15T11:07:46;24.27;;;19.45;;
39094;SDS011;24840;47.508;19.376;2023-02-15T11:12:40;23.67;;;18.83;;
39094;SDS011;24840;47.508;19.376;2023-02-15T11:15:42;24.35;;;19.25;;
39094;SDS011;24840;47.508;19.376;2023-02-15T11:21:08;37.55;;;22.27;;
39094;SDS011;24840;47.508;19.376;2023-02-15T11:23:35;30.85;;;21.98;;
39094;SDS011;24840;47.508;19.376;2023-02-15T11:26:09;30.55;;;23.35;;
39094;SDS011;24840;47.508;19.376;2023-02-15T11:28:47;27.80;;;22.05;;
39094;SDS011;24840;47.508;19.376;2023-02-15T11:31:20;32.38;;;22.55;;
39094;SDS011;24840;47.508;19.376;2023-02-15T11:33:56;29.77;;;22.05;;
39094;SDS011;24840;47.508;19.376;2023-02-15T11:36:27;34.08;;;23.75;;
39094;SDS011;24840;47.508;19.376;2023-02-15T11:39:00;29.50;;;21.98;;
39094;SDS011;24840;47.508;19.376;2023-02-15T11:41:29;27.83;;;21.02;;
39094;SDS011;24840;47.508;19.376;2023-02-15T11:46:30;27.87;;;21.97;;
39094;SDS011;24840;47.508;19.376;2023-02-15T11:48:56;27.75;;;21.92;;
39094;SDS011;24840;47.508;19.376;2023-02-15T11:51:23;28.58;;;22.73;;
39094;SDS011;24840;47.508;19.376;2023-02-15T11:53:50;27.45;;;22.42;;
39094;SDS011;24840;47.508;19.376;2023-02-15T11:56:18;26.10;;;22.63;;
39094;SDS011;24840;47.508;19.376;2023-02-15T11:58:51;30.33;;;22.00;;
39094;SDS011;24840;47.508;19.376;2023-02-15T12:07:21;30.25;;;23.02;;
39094;SDS011;24840;47.508;19.376;2023-02-15T12:12:38;29.85;;;23.85;;
39094;SDS011;24840;47.508;19.376;2023-02-15T12:15:08;26.08;;;22.50;;
39094;SDS011;24840;47.508;19.376;2023-02-15T12:17:38;27.33;;;20.42;;
39094;SDS011;24840;47.508;19.376;2023-02-15T12:22:51;27.80;;;21.08;;
39094;SDS011;24840;47.508;19.376;2023-02-15T12:25:20;28.55;;;22.13;;
39094;SDS011;24840;47.508;19.376;2023-02-15T12:27:54;25.95;;;20.42;;
39094;SDS011;24840;47.508;19.376;2023-02-15T12:30:34;24.90;;;19.65;;
39094;SDS011;24840;47.508;19.376;2023-02-15T12:33:05;26.53;;;20.60;;
39094;SDS011;24840;47.508;19.376;2023-02-15T12:35:47;24.05;;;19.13;;
39094;SDS011;24840;47.508;19.376;2023-02-15T12:38:23;25.42;;;19.38;;
39094;SDS011;24840;47.508;19.376;2023-02-15T12:41:24;26.15;;;19.45;;
39094;SDS011;24840;47.508;19.376;2023-02-15T12:43:45;26.67;;;19.67;;
39094;SDS011;24840;47.508;19.376;2023-02-15T12:51:44;24.30;;;17.90;;
39094;SDS011;24840;47.508;19.376;2023-02-15T12:54:16;19.33;;;16.00;;
39094;SDS011;24840;47.508;19.376;2023-02-15T12:56:51;22.35;;;18.55;;
39094;SDS011;24840;47.508;19.376;2023-02-15T12:59:17;23.05;;;20.08;;
39094;SDS011;24840;47.508;19.376;2023-02-15T13:01:47;30.02;;;22.52;;
39094;SDS011;24840;47.508;19.376;2023-02-15T13:06:51;28.05;;;21.23;;
39094;SDS011;24840;47.508;19.376;2023-02-15T13:11:48;23.67;;;20.17;;
39094;SDS011;24840;47.508;19.376;2023-02-15T13:14:32;25.10;;;19.55;;
39094;SDS011;24840;47.508;19.376;2023-02-15T13:17:00;26.83;;;20.92;;
39094;SDS011;24840;47.508;19.376;2023-02-15T13:19:31;24.95;;;20.70;;
39094;SDS011;24840;47.508;19.376;2023-02-15T13:22:38;26.52;;;21.13;;
39094;SDS011;24840;47.508;19.376;2023-02-15T13:25:01;24.65;;;20.95;;
39094;SDS011;24840;47.508;19.376;2023-02-15T13:27:36;27.50;;;20.63;;
39094;SDS011;24840;47.508;19.376;2023-02-15T13:30:13;28.00;;;22.55;;
39094;SDS011;24840;47.508;19.376;2023-02-15T13:32:58;27.67;;;21.57;;
39094;SDS011;24840;47.508;19.376;2023-02-15T13:35:51;26.63;;;21.10;;
39094;SDS011;24840;47.508;19.376;2023-02-15T13:41:04;26.25;;;20.63;;
39094;SDS011;24840;47.508;19.376;2023-02-15T13:43:48;27.67;;;21.67;;
39094;SDS011;24840;47.508;19.376;2023-02-15T13:51:45;27.60;;;23.88;;
39094;SDS011;24840;47.508;19.376;2023-02-15T14:00:22;30.27;;;24.60;;
39094;SDS011;24840;47.508;19.376;2023-02-15T14:07:52;33.53;;;26.40;;
39094;SDS011;24840;47.508;19.376;2023-02-15T14:16:03;33.88;;;26.00;;
39094;SDS011;24840;47.508;19.376;2023-02-15T14:18:51;35.58;;;26.58;;
39094;SDS011;24840;47.508;19.376;2023-02-15T14:22:10;35.30;;;26.00;;
39094;SDS011;24840;47.508;19.376;2023-02-15T14:30:15;33.08;;;26.95;;
39094;SDS011;24840;47.508;19.376;2023-02-15T14:32:46;116.60;;;32.25;;
39094;SDS011;24840;47.508;19.376;2023-02-15T14:35:23;42.78;;;27.02;;
39094;SDS011;24840;47.508;19.376;2023-02-15T14:37:55;33.85;;;26.35;;
39094;SDS011;24840;47.508;19.376;2023-02-15T14:40:42;31.45;;;25.15;;
39094;SDS011;24840;47.508;19.376;2023-02-15T14:46:01;46.55;;;26.83;;
39094;SDS011;24840;47.508;19.376;2023-02-15T14:48:40;32.33;;;26.33;;
39094;SDS011;24840;47.508;19.376;2023-02-15T14:51:10;33.15;;;24.80;;
39094;SDS011;24840;47.508;19.376;2023-02-15T14:59:27;33.85;;;25.92;;
39094;SDS011;24840;47.508;19.376;2023-02-15T15:08:00;33.47;;;25.98;;
39094;SDS011;24840;47.508;19.376;2023-02-15T15:10:36;47.80;;;25.13;;
39094;SDS011;24840;47.508;19.376;2023-02-15T15:15:56;33.55;;;25.70;;
39094;SDS011;24840;47.508;19.376;2023-02-15T15:18:55;30.90;;;24.35;;
39094;SDS011;24840;47.508;19.376;2023-02-15T15:41:08;23.27;;;18.33;;
39094;SDS011;24840;47.508;19.376;2023-02-15T15:49:18;24.58;;;18.55;;
39094;SDS011;24840;47.508;19.376;2023-02-15T15:51:46;25.30;;;19.52;;
39094;SDS011;24840;47.508;19.376;2023-02-15T15:54:17;26.65;;;19.15;;
39094;SDS011;24840;47.508;19.376;2023-02-15T15:56:49;26.23;;;19.80;;
39094;SDS011;24840;47.508;19.376;2023-02-15T15:59:24;24.67;;;17.48;;
39094;SDS011;24840;47.508;19.376;2023-02-15T16:01:52;23.00;;;17.15;;
39094;SDS011;24840;47.508;19.376;2023-02-15T16:04:31;27.55;;;18.85;;
39094;SDS011;24840;47.508;19.376;2023-02-15T16:07:13;31.55;;;24.65;;
39094;SDS011;24840;47.508;19.376;2023-02-15T16:09:55;30.25;;;21.17;;
39094;SDS011;24840;47.508;19.376;2023-02-15T16:12:26;29.95;;;19.40;;
39094;SDS011;24840;47.508;19.376;2023-02-15T16:14:54;37.70;;;18.98;;
39094;SDS011;24840;47.508;19.376;2023-02-15T16:17:22;27.42;;;19.05;;
39094;SDS011;24840;47.508;19.376;2023-02-15T16:20:05;25.52;;;17.58;;
39094;SDS011;24840;47.508;19.376;2023-02-15T16:22:39;24.88;;;19.38;;
39094;SDS011;24840;47.508;19.376;2023-02-15T16:32:46;27.17;;;19.70;;
39094;SDS011;24840;47.508;19.376;2023-02-15T16:35:14;26.75;;;16.85;;
39094;SDS011;24840;47.508;19.376;2023-02-15T16:37:41;21.27;;;17.07;;
39094;SDS011;24840;47.508;19.376;2023-02-15T16:42:52;23.93;;;18.27;;
39094;SDS011;24840;47.508;19.376;2023-02-15T16:45:22;30.33;;;18.57;;
39094;SDS011;24840;47.508;19.376;2023-02-15T16:47:52;70.03;;;21.93;;
39094;SDS011;24840;47.508;19.376;2023-02-15T16:50:40;68.97;;;22.73;;
39094;SDS011;24840;47.508;19.376;2023-02-15T16:53:17;56.23;;;19.73;;
39094;SDS011;24840;47.508;19.376;2023-02-15T16:55:47;31.50;;;18.07;;
39094;SDS011;24840;47.508;19.376;2023-02-15T16:58:21;31.67;;;18.80;;
39094;SDS011;24840;47.508;19.376;2023-02-15T17:00:58;24.20;;;17.10;;
39094;SDS011;24840;47.508;19.376;2023-02-15T17:03:25;26.53;;;18.10;;
39094;SDS011;24840;47.508;19.376;2023-02-15T17:05:56;26.83;;;17.43;;
39094;SDS011;24840;47.508;19.376;2023-02-15T17:13:25;25.73;;;18.13;;
39094;SDS011;24840;47.508;19.376;2023-02-15T17:18:27;26.70;;;19.83;;
39094;SDS011;24840;47.508;19.376;2023-02-15T17:20:59;30.67;;;20.23;;
39094;SDS011;24840;47.508;19.376;2023-02-15T17:23:41;26.83;;;18.50;;
39094;SDS011;24840;47.508;19.376;2023-02-15T17:26:14;27.70;;;18.13;;
39094;SDS011;24840;47.508;19.376;2023-02-15T17:28:52;24.93;;;17.57;;
39094;SDS011;24840;47.508;19.376;2023-02-15T17:31:29;29.97;;;20.47;;
39094;SDS011;24840;47.508;19.376;2023-02-15T17:42:52;28.40;;;20.03;;
39094;SDS011;24840;47.508;19.376;2023-02-15T17:45:19;29.87;;;20.60;;
39094;SDS011;24840;47.508;19.376;2023-02-15T17:48:12;28.20;;;20.10;;
39094;SDS011;24840;47.508;19.376;2023-02-15T17:50:43;30.40;;;20.37;;
39094;SDS011;24840;47.508;19.376;2023-02-15T17:53:09;29.03;;;19.37;;
39094;SDS011;24840;47.508;19.376;2023-02-15T17:55:36;30.13;;;21.30;;
39094;SDS011;24840;47.508;19.376;2023-02-15T17:58:08;30.00;;;20.70;;
39094;SDS011;24840;47.508;19.376;2023-02-15T18:00:37;29.37;;;21.07;;
39094;SDS011;24840;47.508;19.376;2023-02-15T18:03:28;32.40;;;22.07;;
39094;SDS011;24840;47.508;19.376;2023-02-15T18:06:27;33.60;;;22.50;;
39094;SDS011;24840;47.508;19.376;2023-02-15T18:09:13;30.67;;;21.90;;
39094;SDS011;24840;47.508;19.376;2023-02-15T18:11:59;34.40;;;24.77;;
39094;SDS011;24840;47.508;19.376;2023-02-15T18:14:25;32.43;;;21.70;;
39094;SDS011;24840;47.508;19.376;2023-02-15T18:16:51;32.83;;;22.77;;
39094;SDS011;24840;47.508;19.376;2023-02-15T18:19:24;29.97;;;22.37;;
39094;SDS011;24840;47.508;19.376;2023-02-15T18:21:51;34.03;;;23.03;;
39094;SDS011;24840;47.508;19.376;2023-02-15T18:24:18;33.97;;;23.83;;
39094;SDS011;24840;47.508;19.376;2023-02-15T18:26:48;33.00;;;24.10;;
39094;SDS011;24840;47.508;19.376;2023-02-15T18:29:14;32.93;;;22.60;;
39094;SDS011;24840;47.508;19.376;2023-02-15T18:31:39;32.37;;;23.23;;
39094;SDS011;24840;47.508;19.376;2023-02-15T18:34:09;37.90;;;25.23;;
39094;SDS011;24840;47.508;19.376;2023-02-15T18:36:46;36.20;;;24.83;;